sensor_id;sensor_type;location;lat;lon;timestamp;P1;durP1;ratioP1;P2;durP2;ratioP2
8893;SDS011;4483;48.622;9.230;2023-02-26T00:02:20;2.40;;;1.47;;
8893;SDS011;4483;48.622;9.230;2023-02-26T00:04:47;2.43;;;1.60;;
8893;SDS011;4483;48.622;9.230;2023-02-26T00:07:14;4.70;;;1.60;;
8893;SDS011;4483;48.622;9.230;2023-02-26T00:09:40;4.60;;;1.40;;
8893;SDS011;4483;48.622;9.230;2023-02-26T00:12:08;3.77;;;1.60;;
8893;SDS011;4483;48.622;9.230;2023-02-26T00:14:38;2.70;;;1.53;;
8893;SDS011;4483;48.622;9.230;2023-02-26T00:17:08;2.60;;;1.53;;
8893;SDS011;4483;48.622;9.230;2023-02-26T00:19:51;2.40;;;1.40;;
8893;SDS011;4483;48.622;9.230;2023-02-26T00:22:19;2.70;;;1.33;;
8893;SDS011;4483;48.622;9.230;2023-02-26T00:24:46;2.27;;;1.30;;
8893;SDS011;4483;48.622;9.230;2023-02-26T00:27:12;3.47;;;1.80;;
8893;SDS011;4483;48.622;9.230;2023-02-26T00:29:41;2.50;;;1.80;;
8893;SDS011;4483;48.622;9.230;2023-02-26T00:32:08;1.70;;;1.30;;
8893;SDS011;4483;48.622;9.230;2023-02-26T00:34:36;2.23;;;1.70;;
8893;SDS011;4483;48.622;9.230;2023-02-26T00:37:07;1.93;;;1.70;;
8893;SDS011;4483;48.622;9.230;2023-02-26T00:39:43;5.13;;;1.67;;
8893;SDS011;4483;48.622;9.230;2023-02-26T00:42:16;1.60;;;1.50;;
8893;SDS011;4483;48.622;9.230;2023-02-26T00:44:45;1.27;;;1.17;;
8893;SDS011;4483;48.622;9.230;2023-02-26T00:47:13;2.33;;;1.13;;
8893;SDS011;4483;48.622;9.230;2023-02-26T00:49:49;1.67;;;1.43;;
8893;SDS011;4483;48.622;9.230;2023-02-26T00:52:28;1.60;;;1.50;;
8893;SDS011;4483;48.622;9.230;2023-02-26T00:55:03;1.83;;;1.50;;
8893;SDS011;4483;48.622;9.230;2023-02-26T00:57:29;2.53;;;1.60;;
8893;SDS011;4483;48.622;9.230;2023-02-26T00:59:57;3.20;;;1.53;;
8893;SDS011;4483;48.622;9.230;2023-02-26T01:02:24;4.73;;;1.60;;
8893;SDS011;4483;48.622;9.230;2023-02-26T01:04:51;1.90;;;1.53;;
8893;SDS011;4483;48.622;9.230;2023-02-26T01:07:19;2.37;;;1.47;;
8893;SDS011;4483;48.622;9.230;2023-02-26T01:09:49;2.43;;;1.63;;
8893;SDS011;4483;48.622;9.230;2023-02-26T01:12:16;2.17;;;1.47;;
8893;SDS011;4483;48.622;9.230;2023-02-26T01:14:43;1.83;;;1.67;;
8893;SDS011;4483;48.622;9.230;2023-02-26T01:17:13;2.77;;;1.27;;
8893;SDS011;4483;48.622;9.230;2023-02-26T01:19:45;5.00;;;1.77;;
8893;SDS011;4483;48.622;9.230;2023-02-26T01:22:17;4.93;;;1.70;;
8893;SDS011;4483;48.622;9.230;2023-02-26T01:24:46;2.30;;;2.07;;
8893;SDS011;4483;48.622;9.230;2023-02-26T01:27:16;1.23;;;1.23;;
8893;SDS011;4483;48.622;9.230;2023-02-26T01:29:43;3.37;;;1.73;;
8893;SDS011;4483;48.622;9.230;2023-02-26T01:32:11;1.87;;;1.63;;
8893;SDS011;4483;48.622;9.230;2023-02-26T01:34:45;2.03;;;1.60;;
8893;SDS011;4483;48.622;9.230;2023-02-26T01:37:20;2.17;;;1.67;;
8893;SDS011;4483;48.622;9.230;2023-02-26T01:39:59;1.77;;;1.33;;
8893;SDS011;4483;48.622;9.230;2023-02-26T01:42:32;3.60;;;1.70;;
8893;SDS011;4483;48.622;9.230;2023-02-26T01:45:08;5.37;;;2.00;;
8893;SDS011;4483;48.622;9.230;2023-02-26T01:47:40;1.60;;;1.50;;
8893;SDS011;4483;48.622;9.230;2023-02-26T01:50:14;2.27;;;1.23;;
8893;SDS011;4483;48.622;9.230;2023-02-26T01:55:46;4.13;;;1.60;;
8893;SDS011;4483;48.622;9.230;2023-02-26T01:58:15;1.50;;;1.40;;
8893;SDS011;4483;48.622;9.230;2023-02-26T02:00:42;2.07;;;1.60;;
8893;SDS011;4483;48.622;9.230;2023-02-26T02:03:10;1.77;;;1.47;;
8893;SDS011;4483;48.622;9.230;2023-02-26T02:05:39;3.10;;;1.90;;
8893;SDS011;4483;48.622;9.230;2023-02-26T02:08:09;5.77;;;1.60;;
8893;SDS011;4483;48.622;9.230;2023-02-26T02:10:36;1.60;;;1.50;;
8893;SDS011;4483;48.622;9.230;2023-02-26T02:13:09;1.80;;;1.70;;
8893;SDS011;4483;48.622;9.230;2023-02-26T02:15:44;2.07;;;1.80;;
8893;SDS011;4483;48.622;9.230;2023-02-26T02:18:19;3.40;;;1.60;;
8893;SDS011;4483;48.622;9.230;2023-02-26T02:20:51;2.30;;;1.63;;
8893;SDS011;4483;48.622;9.230;2023-02-26T02:23:32;2.07;;;1.40;;
8893;SDS011;4483;48.622;9.230;2023-02-26T02:26:12;3.07;;;1.80;;
8893;SDS011;4483;48.622;9.230;2023-02-26T02:31:59;2.27;;;1.70;;
8893;SDS011;4483;48.622;9.230;2023-02-26T02:34:32;2.40;;;1.70;;
8893;SDS011;4483;48.622;9.230;2023-02-26T02:37:04;2.67;;;1.90;;
8893;SDS011;4483;48.622;9.230;2023-02-26T02:39:37;2.37;;;1.60;;
8893;SDS011;4483;48.622;9.230;2023-02-26T02:42:18;1.90;;;1.67;;
8893;SDS011;4483;48.622;9.230;2023-02-26T02:44:50;2.97;;;1.60;;
8893;SDS011;4483;48.622;9.230;2023-02-26T02:47:22;2.50;;;1.60;;
8893;SDS011;4483;48.622;9.230;2023-02-26T02:49:53;2.50;;;1.90;;
8893;SDS011;4483;48.622;9.230;2023-02-26T02:52:24;2.80;;;1.70;;
8893;SDS011;4483;48.622;9.230;2023-02-26T02:54:56;1.50;;;1.40;;
8893;SDS011;4483;48.622;9.230;2023-02-26T02:57:28;3.53;;;1.77;;
8893;SDS011;4483;48.622;9.230;2023-02-26T02:59:59;1.47;;;1.37;;
8893;SDS011;4483;48.622;9.230;2023-02-26T03:02:32;1.67;;;1.57;;
8893;SDS011;4483;48.622;9.230;2023-02-26T03:05:04;2.13;;;1.60;;
8893;SDS011;4483;48.622;9.230;2023-02-26T03:07:31;2.30;;;1.60;;
8893;SDS011;4483;48.622;9.230;2023-02-26T03:10:01;1.77;;;1.63;;
8893;SDS011;4483;48.622;9.230;2023-02-26T03:12:30;4.33;;;1.90;;
8893;SDS011;4483;48.622;9.230;2023-02-26T03:14:58;1.50;;;1.40;;
8893;SDS011;4483;48.622;9.230;2023-02-26T03:17:26;1.73;;;1.40;;
8893;SDS011;4483;48.622;9.230;2023-02-26T03:20:03;2.40;;;1.50;;
8893;SDS011;4483;48.622;9.230;2023-02-26T03:22:39;1.73;;;1.50;;
8893;SDS011;4483;48.622;9.230;2023-02-26T03:25:14;2.53;;;1.70;;
8893;SDS011;4483;48.622;9.230;2023-02-26T03:27:45;1.50;;;1.40;;
8893;SDS011;4483;48.622;9.230;2023-02-26T03:30:15;2.00;;;1.60;;
8893;SDS011;4483;48.622;9.230;2023-02-26T03:32:48;2.80;;;1.90;;
8893;SDS011;4483;48.622;9.230;2023-02-26T03:35:24;4.27;;;1.77;;
8893;SDS011;4483;48.622;9.230;2023-02-26T03:37:55;3.30;;;1.53;;
8893;SDS011;4483;48.622;9.230;2023-02-26T03:40:27;3.37;;;1.60;;
8893;SDS011;4483;48.622;9.230;2023-02-26T03:42:59;1.70;;;1.37;;
8893;SDS011;4483;48.622;9.230;2023-02-26T03:45:30;3.37;;;1.70;;
8893;SDS011;4483;48.622;9.230;2023-02-26T03:47:59;5.97;;;2.53;;
8893;SDS011;4483;48.622;9.230;2023-02-26T03:50:31;5.13;;;1.60;;
8893;SDS011;4483;48.622;9.230;2023-02-26T03:53:02;3.83;;;1.50;;
8893;SDS011;4483;48.622;9.230;2023-02-26T03:55:34;4.53;;;1.77;;
8893;SDS011;4483;48.622;9.230;2023-02-26T03:58:03;1.53;;;1.40;;
8893;SDS011;4483;48.622;9.230;2023-02-26T04:00:30;1.70;;;1.60;;
8893;SDS011;4483;48.622;9.230;2023-02-26T04:03:00;1.53;;;1.40;;
8893;SDS011;4483;48.622;9.230;2023-02-26T04:05:34;3.00;;;1.70;;
8893;SDS011;4483;48.622;9.230;2023-02-26T04:08:04;1.97;;;1.70;;
8893;SDS011;4483;48.622;9.230;2023-02-26T04:10:32;1.83;;;1.73;;
8893;SDS011;4483;48.622;9.230;2023-02-26T04:13:03;1.97;;;1.67;;
8893;SDS011;4483;48.622;9.230;2023-02-26T04:15:30;3.03;;;1.90;;
8893;SDS011;4483;48.622;9.230;2023-02-26T04:17:56;1.97;;;1.60;;
8893;SDS011;4483;48.622;9.230;2023-02-26T04:20:23;2.47;;;1.60;;
8893;SDS011;4483;48.622;9.230;2023-02-26T04:22:51;4.57;;;1.77;;
8893;SDS011;4483;48.622;9.230;2023-02-26T04:25:18;3.97;;;1.53;;
8893;SDS011;4483;48.622;9.230;2023-02-26T04:27:45;3.70;;;2.20;;
8893;SDS011;4483;48.622;9.230;2023-02-26T04:30:12;3.43;;;1.70;;
8893;SDS011;4483;48.622;9.230;2023-02-26T04:32:38;3.20;;;1.60;;
8893;SDS011;4483;48.622;9.230;2023-02-26T04:35:05;1.70;;;1.47;;
8893;SDS011;4483;48.622;9.230;2023-02-26T04:37:33;4.30;;;1.70;;
8893;SDS011;4483;48.622;9.230;2023-02-26T04:40:01;3.87;;;1.63;;
8893;SDS011;4483;48.622;9.230;2023-02-26T04:42:28;1.67;;;1.40;;
8893;SDS011;4483;48.622;9.230;2023-02-26T04:44:55;2.90;;;1.70;;
8893;SDS011;4483;48.622;9.230;2023-02-26T04:47:22;3.73;;;1.80;;
8893;SDS011;4483;48.622;9.230;2023-02-26T04:49:48;3.17;;;1.60;;
8893;SDS011;4483;48.622;9.230;2023-02-26T04:52:15;1.97;;;1.80;;
8893;SDS011;4483;48.622;9.230;2023-02-26T04:54:42;1.50;;;1.40;;
8893;SDS011;4483;48.622;9.230;2023-02-26T04:57:09;2.43;;;1.90;;
8893;SDS011;4483;48.622;9.230;2023-02-26T04:59:36;3.43;;;1.70;;
8893;SDS011;4483;48.622;9.230;2023-02-26T05:02:03;2.63;;;1.63;;
8893;SDS011;4483;48.622;9.230;2023-02-26T05:04:31;1.30;;;1.20;;
8893;SDS011;4483;48.622;9.230;2023-02-26T05:06:57;3.07;;;1.47;;
8893;SDS011;4483;48.622;9.230;2023-02-26T05:09:24;2.40;;;1.70;;
8893;SDS011;4483;48.622;9.230;2023-02-26T05:11:50;2.63;;;1.50;;
8893;SDS011;4483;48.622;9.230;2023-02-26T05:14:19;3.17;;;1.60;;
8893;SDS011;4483;48.622;9.230;2023-02-26T05:16:45;3.77;;;1.77;;
8893;SDS011;4483;48.622;9.230;2023-02-26T05:19:12;2.23;;;1.60;;
8893;SDS011;4483;48.622;9.230;2023-02-26T05:21:39;1.70;;;1.47;;
8893;SDS011;4483;48.622;9.230;2023-02-26T05:24:06;3.78;;;1.90;;
8893;SDS011;4483;48.622;9.230;2023-02-26T05:26:33;5.93;;;1.80;;
8893;SDS011;4483;48.622;9.230;2023-02-26T05:29:00;5.03;;;1.60;;
8893;SDS011;4483;48.622;9.230;2023-02-26T05:31:28;3.97;;;1.77;;
8893;SDS011;4483;48.622;9.230;2023-02-26T05:33:55;1.30;;;1.30;;
8893;SDS011;4483;48.622;9.230;2023-02-26T05:36:21;5.83;;;1.87;;
8893;SDS011;4483;48.622;9.230;2023-02-26T05:38:48;5.40;;;1.87;;
8893;SDS011;4483;48.622;9.230;2023-02-26T05:41:15;2.37;;;1.40;;
8893;SDS011;4483;48.622;9.230;2023-02-26T05:43:41;3.20;;;1.60;;
8893;SDS011;4483;48.622;9.230;2023-02-26T05:46:19;1.83;;;1.50;;
8893;SDS011;4483;48.622;9.230;2023-02-26T05:48:47;2.90;;;1.60;;
8893;SDS011;4483;48.622;9.230;2023-02-26T05:51:13;4.80;;;1.50;;
8893;SDS011;4483;48.622;9.230;2023-02-26T05:53:40;2.70;;;1.83;;
8893;SDS011;4483;48.622;9.230;2023-02-26T05:56:07;3.20;;;1.80;;
8893;SDS011;4483;48.622;9.230;2023-02-26T05:58:33;4.17;;;2.13;;
8893;SDS011;4483;48.622;9.230;2023-02-26T06:01:00;3.33;;;1.83;;
8893;SDS011;4483;48.622;9.230;2023-02-26T06:03:27;3.13;;;1.60;;
8893;SDS011;4483;48.622;9.230;2023-02-26T06:05:55;1.97;;;1.70;;
8893;SDS011;4483;48.622;9.230;2023-02-26T06:08:21;3.23;;;1.60;;
8893;SDS011;4483;48.622;9.230;2023-02-26T06:10:48;5.30;;;1.90;;
8893;SDS011;4483;48.622;9.230;2023-02-26T06:13:15;2.30;;;1.93;;
8893;SDS011;4483;48.622;9.230;2023-02-26T06:15:43;3.53;;;1.87;;
8893;SDS011;4483;48.622;9.230;2023-02-26T06:18:09;2.60;;;2.00;;
8893;SDS011;4483;48.622;9.230;2023-02-26T06:20:36;8.00;;;2.00;;
8893;SDS011;4483;48.622;9.230;2023-02-26T06:23:04;3.03;;;1.53;;
8893;SDS011;4483;48.622;9.230;2023-02-26T06:25:30;4.97;;;2.23;;
8893;SDS011;4483;48.622;9.230;2023-02-26T06:27:57;1.87;;;1.77;;
8893;SDS011;4483;48.622;9.230;2023-02-26T06:30:24;3.67;;;2.07;;
8893;SDS011;4483;48.622;9.230;2023-02-26T06:32:50;4.80;;;2.23;;
8893;SDS011;4483;48.622;9.230;2023-02-26T06:35:17;4.33;;;1.73;;
8893;SDS011;4483;48.622;9.230;2023-02-26T06:37:44;2.50;;;2.00;;
8893;SDS011;4483;48.622;9.230;2023-02-26T06:40:12;3.63;;;2.37;;
8893;SDS011;4483;48.622;9.230;2023-02-26T06:42:39;2.77;;;2.07;;
8893;SDS011;4483;48.622;9.230;2023-02-26T06:45:06;3.23;;;2.03;;
8893;SDS011;4483;48.622;9.230;2023-02-26T06:47:33;3.07;;;1.70;;
8893;SDS011;4483;48.622;9.230;2023-02-26T06:50:01;5.87;;;2.00;;
8893;SDS011;4483;48.622;9.230;2023-02-26T06:52:29;3.07;;;2.10;;
8893;SDS011;4483;48.622;9.230;2023-02-26T06:54:56;3.57;;;2.10;;
8893;SDS011;4483;48.622;9.230;2023-02-26T06:57:24;1.90;;;1.80;;
8893;SDS011;4483;48.622;9.230;2023-02-26T06:59:50;2.77;;;1.83;;
8893;SDS011;4483;48.622;9.230;2023-02-26T07:02:18;2.90;;;2.23;;
8893;SDS011;4483;48.622;9.230;2023-02-26T07:04:46;7.50;;;1.97;;
8893;SDS011;4483;48.622;9.230;2023-02-26T07:07:12;6.90;;;2.10;;
8893;SDS011;4483;48.622;9.230;2023-02-26T07:09:41;3.00;;;1.77;;
8893;SDS011;4483;48.622;9.230;2023-02-26T07:12:08;4.27;;;2.07;;
8893;SDS011;4483;48.622;9.230;2023-02-26T07:14:35;2.03;;;1.80;;
8893;SDS011;4483;48.622;9.230;2023-02-26T07:17:02;2.47;;;2.00;;
8893;SDS011;4483;48.622;9.230;2023-02-26T07:19:29;4.30;;;1.70;;
8893;SDS011;4483;48.622;9.230;2023-02-26T07:21:55;3.53;;;1.90;;
8893;SDS011;4483;48.622;9.230;2023-02-26T07:24:22;2.07;;;1.73;;
8893;SDS011;4483;48.622;9.230;2023-02-26T07:26:49;5.70;;;2.20;;
8893;SDS011;4483;48.622;9.230;2023-02-26T07:29:16;2.33;;;1.70;;
8893;SDS011;4483;48.622;9.230;2023-02-26T07:31:44;1.80;;;1.53;;
8893;SDS011;4483;48.622;9.230;2023-02-26T07:34:11;1.90;;;1.63;;
8893;SDS011;4483;48.622;9.230;2023-02-26T07:36:37;2.37;;;1.70;;
8893;SDS011;4483;48.622;9.230;2023-02-26T07:39:04;1.70;;;1.60;;
8893;SDS011;4483;48.622;9.230;2023-02-26T07:41:30;1.67;;;1.40;;
8893;SDS011;4483;48.622;9.230;2023-02-26T07:43:57;3.27;;;1.70;;
8893;SDS011;4483;48.622;9.230;2023-02-26T07:46:24;1.87;;;1.63;;
8893;SDS011;4483;48.622;9.230;2023-02-26T07:48:52;2.63;;;1.60;;
8893;SDS011;4483;48.622;9.230;2023-02-26T07:51:18;2.63;;;1.70;;
8893;SDS011;4483;48.622;9.230;2023-02-26T07:53:45;4.23;;;1.63;;
8893;SDS011;4483;48.622;9.230;2023-02-26T07:56:12;3.33;;;1.33;;
8893;SDS011;4483;48.622;9.230;2023-02-26T07:58:38;2.17;;;1.43;;
8893;SDS011;4483;48.622;9.230;2023-02-26T08:01:05;4.37;;;1.40;;
8893;SDS011;4483;48.622;9.230;2023-02-26T08:03:32;3.00;;;1.23;;
8893;SDS011;4483;48.622;9.230;2023-02-26T08:05:59;1.43;;;1.33;;
8893;SDS011;4483;48.622;9.230;2023-02-26T08:08:27;3.30;;;1.63;;
8893;SDS011;4483;48.622;9.230;2023-02-26T08:10:54;3.40;;;1.67;;
8893;SDS011;4483;48.622;9.230;2023-02-26T08:13:20;3.87;;;1.60;;
8893;SDS011;4483;48.622;9.230;2023-02-26T08:15:47;2.63;;;1.60;;
8893;SDS011;4483;48.622;9.230;2023-02-26T08:18:13;4.67;;;1.50;;
8893;SDS011;4483;48.622;9.230;2023-02-26T08:20:40;3.63;;;1.70;;
8893;SDS011;4483;48.622;9.230;2023-02-26T08:23:08;4.47;;;1.50;;
8893;SDS011;4483;48.622;9.230;2023-02-26T08:25:35;1.83;;;1.60;;
8893;SDS011;4483;48.622;9.230;2023-02-26T08:28:02;3.73;;;1.50;;
8893;SDS011;4483;48.622;9.230;2023-02-26T08:30:29;3.37;;;1.67;;
8893;SDS011;4483;48.622;9.230;2023-02-26T08:32:55;3.20;;;1.50;;
8893;SDS011;4483;48.622;9.230;2023-02-26T08:35:22;3.07;;;1.80;;
8893;SDS011;4483;48.622;9.230;2023-02-26T08:37:49;1.53;;;1.43;;
8893;SDS011;4483;48.622;9.230;2023-02-26T08:40:18;3.57;;;1.30;;
8893;SDS011;4483;48.622;9.230;2023-02-26T08:42:45;2.13;;;1.57;;
8893;SDS011;4483;48.622;9.230;2023-02-26T08:45:12;1.93;;;1.60;;
8893;SDS011;4483;48.622;9.230;2023-02-26T08:47:38;5.40;;;1.70;;
8893;SDS011;4483;48.622;9.230;2023-02-26T08:50:07;3.70;;;1.73;;
8893;SDS011;4483;48.622;9.230;2023-02-26T08:52:35;2.53;;;1.43;;
8893;SDS011;4483;48.622;9.230;2023-02-26T08:55:03;2.10;;;1.40;;
8893;SDS011;4483;48.622;9.230;2023-02-26T08:57:31;2.37;;;1.53;;
8893;SDS011;4483;48.622;9.230;2023-02-26T08:59:58;3.33;;;1.53;;
8893;SDS011;4483;48.622;9.230;2023-02-26T09:02:24;4.17;;;1.60;;
8893;SDS011;4483;48.622;9.230;2023-02-26T09:04:51;2.83;;;1.13;;
8893;SDS011;4483;48.622;9.230;2023-02-26T09:07:18;3.37;;;1.30;;
8893;SDS011;4483;48.622;9.230;2023-02-26T09:09:44;2.30;;;1.47;;
8893;SDS011;4483;48.622;9.230;2023-02-26T09:12:11;3.77;;;1.40;;
8893;SDS011;4483;48.622;9.230;2023-02-26T09:14:39;2.13;;;1.40;;
8893;SDS011;4483;48.622;9.230;2023-02-26T09:17:05;3.60;;;1.27;;
8893;SDS011;4483;48.622;9.230;2023-02-26T09:19:32;5.97;;;1.70;;
8893;SDS011;4483;48.622;9.230;2023-02-26T09:21:58;2.20;;;1.10;;
8893;SDS011;4483;48.622;9.230;2023-02-26T09:24:25;1.87;;;1.57;;
8893;SDS011;4483;48.622;9.230;2023-02-26T09:26:52;5.97;;;1.53;;
8893;SDS011;4483;48.622;9.230;2023-02-26T09:29:18;2.57;;;1.43;;
8893;SDS011;4483;48.622;9.230;2023-02-26T09:31:47;1.20;;;1.10;;
8893;SDS011;4483;48.622;9.230;2023-02-26T09:34:13;2.63;;;1.40;;
8893;SDS011;4483;48.622;9.230;2023-02-26T09:36:40;6.03;;;1.90;;
8893;SDS011;4483;48.622;9.230;2023-02-26T09:39:07;2.07;;;1.40;;
8893;SDS011;4483;48.622;9.230;2023-02-26T09:41:35;2.97;;;1.23;;
8893;SDS011;4483;48.622;9.230;2023-02-26T09:44:09;2.17;;;1.50;;
8893;SDS011;4483;48.622;9.230;2023-02-26T09:46:44;2.10;;;1.37;;
8893;SDS011;4483;48.622;9.230;2023-02-26T09:49:27;1.20;;;1.20;;
8893;SDS011;4483;48.622;9.230;2023-02-26T09:52:01;1.23;;;1.10;;
8893;SDS011;4483;48.622;9.230;2023-02-26T09:54:32;1.80;;;1.33;;
8893;SDS011;4483;48.622;9.230;2023-02-26T09:57:06;3.20;;;1.37;;
8893;SDS011;4483;48.622;9.230;2023-02-26T09:59:36;2.57;;;1.80;;
8893;SDS011;4483;48.622;9.230;2023-02-26T10:02:06;1.63;;;1.53;;
8893;SDS011;4483;48.622;9.230;2023-02-26T10:04:46;2.13;;;1.57;;
8893;SDS011;4483;48.622;9.230;2023-02-26T10:07:19;3.23;;;1.60;;
8893;SDS011;4483;48.622;9.230;2023-02-26T10:09:58;2.20;;;1.30;;
8893;SDS011;4483;48.622;9.230;2023-02-26T10:12:33;4.23;;;1.70;;
8893;SDS011;4483;48.622;9.230;2023-02-26T10:15:03;2.03;;;1.60;;
8893;SDS011;4483;48.622;9.230;2023-02-26T10:17:40;1.80;;;1.27;;
8893;SDS011;4483;48.622;9.230;2023-02-26T10:20:18;1.90;;;1.33;;
8893;SDS011;4483;48.622;9.230;2023-02-26T10:22:50;2.23;;;1.57;;
8893;SDS011;4483;48.622;9.230;2023-02-26T10:25:25;3.57;;;1.70;;
8893;SDS011;4483;48.622;9.230;2023-02-26T10:27:58;2.63;;;1.40;;
8893;SDS011;4483;48.622;9.230;2023-02-26T10:30:32;2.10;;;1.13;;
8893;SDS011;4483;48.622;9.230;2023-02-26T10:33:06;2.43;;;1.33;;
8893;SDS011;4483;48.622;9.230;2023-02-26T10:35:44;1.40;;;1.30;;
8893;SDS011;4483;48.622;9.230;2023-02-26T10:38:18;1.20;;;1.20;;
8893;SDS011;4483;48.622;9.230;2023-02-26T10:40:50;3.10;;;1.23;;
8893;SDS011;4483;48.622;9.230;2023-02-26T10:43:21;1.40;;;1.30;;
8893;SDS011;4483;48.622;9.230;2023-02-26T10:45:57;1.90;;;1.20;;
8893;SDS011;4483;48.622;9.230;2023-02-26T10:51:24;1.50;;;1.23;;
8893;SDS011;4483;48.622;9.230;2023-02-26T10:53:57;1.27;;;1.10;;
8893;SDS011;4483;48.622;9.230;2023-02-26T10:56:28;1.50;;;1.40;;
8893;SDS011;4483;48.622;9.230;2023-02-26T10:58:57;1.23;;;1.13;;
8893;SDS011;4483;48.622;9.230;2023-02-26T11:01:24;1.20;;;1.20;;
8893;SDS011;4483;48.622;9.230;2023-02-26T11:03:55;2.27;;;1.17;;
8893;SDS011;4483;48.622;9.230;2023-02-26T11:06:26;2.97;;;1.17;;
8893;SDS011;4483;48.622;9.230;2023-02-26T11:08:56;2.60;;;1.13;;
8893;SDS011;4483;48.622;9.230;2023-02-26T11:11:39;2.07;;;1.10;;
8893;SDS011;4483;48.622;9.230;2023-02-26T11:14:08;0.93;;;0.93;;
8893;SDS011;4483;48.622;9.230;2023-02-26T11:16:39;3.07;;;1.47;;
8893;SDS011;4483;48.622;9.230;2023-02-26T11:19:11;1.40;;;1.30;;
8893;SDS011;4483;48.622;9.230;2023-02-26T11:21:40;1.17;;;1.10;;
8893;SDS011;4483;48.622;9.230;2023-02-26T11:24:10;2.57;;;1.20;;
8893;SDS011;4483;48.622;9.230;2023-02-26T11:26:42;1.30;;;1.20;;
8893;SDS011;4483;48.622;9.230;2023-02-26T11:29:12;1.17;;;1.07;;
8893;SDS011;4483;48.622;9.230;2023-02-26T11:31:41;0.90;;;0.90;;
8893;SDS011;4483;48.622;9.230;2023-02-26T11:34:08;2.87;;;1.40;;
8893;SDS011;4483;48.622;9.230;2023-02-26T11:36:38;1.43;;;1.40;;
8893;SDS011;4483;48.622;9.230;2023-02-26T11:39:09;1.00;;;1.00;;
8893;SDS011;4483;48.622;9.230;2023-02-26T11:41:41;1.37;;;1.00;;
8893;SDS011;4483;48.622;9.230;2023-02-26T11:44:12;3.93;;;1.30;;
8893;SDS011;4483;48.622;9.230;2023-02-26T11:46:43;1.23;;;1.13;;
8893;SDS011;4483;48.622;9.230;2023-02-26T11:49:13;1.17;;;1.13;;
8893;SDS011;4483;48.622;9.230;2023-02-26T11:51:45;1.23;;;1.17;;
8893;SDS011;4483;48.622;9.230;2023-02-26T11:54:20;1.50;;;1.40;;
8893;SDS011;4483;48.622;9.230;2023-02-26T11:56:48;1.10;;;1.10;;
8893;SDS011;4483;48.622;9.230;2023-02-26T11:59:16;1.33;;;1.23;;
8893;SDS011;4483;48.622;9.230;2023-02-26T12:01:44;1.00;;;1.00;;
8893;SDS011;4483;48.622;9.230;2023-02-26T12:04:14;1.03;;;1.03;;
8893;SDS011;4483;48.622;9.230;2023-02-26T12:06:44;1.10;;;1.10;;
8893;SDS011;4483;48.622;9.230;2023-02-26T12:09:14;0.93;;;0.93;;
8893;SDS011;4483;48.622;9.230;2023-02-26T12:14:47;1.33;;;1.20;;
8893;SDS011;4483;48.622;9.230;2023-02-26T12:17:31;1.20;;;1.10;;
8893;SDS011;4483;48.622;9.230;2023-02-26T12:20:12;1.20;;;1.10;;
8893;SDS011;4483;48.622;9.230;2023-02-26T12:22:47;1.20;;;1.10;;
8893;SDS011;4483;48.622;9.230;2023-02-26T12:28:33;1.00;;;1.00;;
8893;SDS011;4483;48.622;9.230;2023-02-26T12:34:28;0.80;;;0.80;;
8893;SDS011;4483;48.622;9.230;2023-02-26T12:37:24;0.97;;;0.97;;
8893;SDS011;4483;48.622;9.230;2023-02-26T12:40:02;1.13;;;1.13;;
8893;SDS011;4483;48.622;9.230;2023-02-26T12:42:42;1.23;;;1.13;;
8893;SDS011;4483;48.622;9.230;2023-02-26T12:45:25;0.90;;;0.90;;
8893;SDS011;4483;48.622;9.230;2023-02-26T12:48:09;0.70;;;0.70;;
8893;SDS011;4483;48.622;9.230;2023-02-26T12:50:53;1.30;;;1.20;;
8893;SDS011;4483;48.622;9.230;2023-02-26T12:59:29;1.00;;;1.00;;
8893;SDS011;4483;48.622;9.230;2023-02-26T13:05:18;0.80;;;0.80;;
8893;SDS011;4483;48.622;9.230;2023-02-26T13:07:55;2.10;;;1.00;;
8893;SDS011;4483;48.622;9.230;2023-02-26T13:10:31;1.20;;;1.10;;
8893;SDS011;4483;48.622;9.230;2023-02-26T13:13:11;0.70;;;0.70;;
8893;SDS011;4483;48.622;9.230;2023-02-26T13:15:55;0.90;;;0.90;;
8893;SDS011;4483;48.622;9.230;2023-02-26T13:18:42;1.17;;;0.90;;
8893;SDS011;4483;48.622;9.230;2023-02-26T13:21:17;1.00;;;1.00;;
8893;SDS011;4483;48.622;9.230;2023-02-26T13:23:47;0.80;;;0.80;;
8893;SDS011;4483;48.622;9.230;2023-02-26T13:26:18;0.80;;;0.80;;
8893;SDS011;4483;48.622;9.230;2023-02-26T13:28:47;0.87;;;0.87;;
8893;SDS011;4483;48.622;9.230;2023-02-26T13:31:19;0.93;;;0.93;;
8893;SDS011;4483;48.622;9.230;2023-02-26T13:33:49;2.10;;;1.10;;
8893;SDS011;4483;48.622;9.230;2023-02-26T13:36:16;1.00;;;1.00;;
8893;SDS011;4483;48.622;9.230;2023-02-26T13:38:50;0.93;;;0.93;;
8893;SDS011;4483;48.622;9.230;2023-02-26T13:41:31;1.13;;;1.00;;
8893;SDS011;4483;48.622;9.230;2023-02-26T13:44:10;1.57;;;1.00;;
8893;SDS011;4483;48.622;9.230;2023-02-26T13:47:10;0.80;;;0.80;;
8893;SDS011;4483;48.622;9.230;2023-02-26T13:49:47;1.00;;;1.00;;
8893;SDS011;4483;48.622;9.230;2023-02-26T13:52:22;1.00;;;1.00;;
8893;SDS011;4483;48.622;9.230;2023-02-26T13:54:50;2.23;;;1.00;;
8893;SDS011;4483;48.622;9.230;2023-02-26T13:57:24;0.80;;;0.80;;
8893;SDS011;4483;48.622;9.230;2023-02-26T14:00:00;3.00;;;1.00;;
8893;SDS011;4483;48.622;9.230;2023-02-26T14:02:43;0.90;;;0.90;;
8893;SDS011;4483;48.622;9.230;2023-02-26T14:08:41;1.33;;;0.73;;
8893;SDS011;4483;48.622;9.230;2023-02-26T14:14:18;0.70;;;0.70;;
8893;SDS011;4483;48.622;9.230;2023-02-26T14:16:54;0.70;;;0.70;;
8893;SDS011;4483;48.622;9.230;2023-02-26T14:19:43;0.60;;;0.60;;
8893;SDS011;4483;48.622;9.230;2023-02-26T14:22:34;0.80;;;0.80;;
8893;SDS011;4483;48.622;9.230;2023-02-26T14:25:14;0.87;;;0.87;;
8893;SDS011;4483;48.622;9.230;2023-02-26T14:27:48;0.70;;;0.70;;
8893;SDS011;4483;48.622;9.230;2023-02-26T14:30:17;0.70;;;0.70;;
8893;SDS011;4483;48.622;9.230;2023-02-26T14:32:53;0.70;;;0.70;;
8893;SDS011;4483;48.622;9.230;2023-02-26T14:35:32;0.70;;;0.70;;
8893;SDS011;4483;48.622;9.230;2023-02-26T14:38:04;0.80;;;0.80;;
8893;SDS011;4483;48.622;9.230;2023-02-26T14:40:37;0.90;;;0.90;;
8893;SDS011;4483;48.622;9.230;2023-02-26T14:43:08;1.43;;;1.03;;
8893;SDS011;4483;48.622;9.230;2023-02-26T14:45:48;1.00;;;1.00;;
8893;SDS011;4483;48.622;9.230;2023-02-26T14:48:16;0.70;;;0.70;;
8893;SDS011;4483;48.622;9.230;2023-02-26T14:50:46;0.90;;;0.90;;
8893;SDS011;4483;48.622;9.230;2023-02-26T14:56:21;0.70;;;0.70;;
8893;SDS011;4483;48.622;9.230;2023-02-26T14:58:58;1.50;;;0.83;;
8893;SDS011;4483;48.622;9.230;2023-02-26T15:01:43;1.00;;;1.00;;
8893;SDS011;4483;48.622;9.230;2023-02-26T15:04:17;0.77;;;0.77;;
8893;SDS011;4483;48.622;9.230;2023-02-26T15:06:58;2.83;;;0.77;;
8893;SDS011;4483;48.622;9.230;2023-02-26T15:09:41;0.70;;;0.70;;
8893;SDS011;4483;48.622;9.230;2023-02-26T15:12:22;0.87;;;0.80;;
8893;SDS011;4483;48.622;9.230;2023-02-26T15:15:20;0.80;;;0.80;;
8893;SDS011;4483;48.622;9.230;2023-02-26T15:17:58;2.33;;;1.10;;
8893;SDS011;4483;48.622;9.230;2023-02-26T15:20:37;0.90;;;0.90;;
8893;SDS011;4483;48.622;9.230;2023-02-26T15:23:23;0.73;;;0.73;;
8893;SDS011;4483;48.622;9.230;2023-02-26T15:26:15;1.00;;;1.00;;
8893;SDS011;4483;48.622;9.230;2023-02-26T15:28:45;0.90;;;0.90;;
8893;SDS011;4483;48.622;9.230;2023-02-26T15:31:12;0.70;;;0.70;;
8893;SDS011;4483;48.622;9.230;2023-02-26T15:33:39;0.80;;;0.80;;
8893;SDS011;4483;48.622;9.230;2023-02-26T15:36:06;1.23;;;1.13;;
8893;SDS011;4483;48.622;9.230;2023-02-26T15:38:39;0.80;;;0.80;;
8893;SDS011;4483;48.622;9.230;2023-02-26T15:41:07;0.80;;;0.80;;
8893;SDS011;4483;48.622;9.230;2023-02-26T15:43:35;0.60;;;0.60;;
8893;SDS011;4483;48.622;9.230;2023-02-26T15:46:02;0.70;;;0.70;;
8893;SDS011;4483;48.622;9.230;2023-02-26T15:48:31;0.80;;;0.80;;
8893;SDS011;4483;48.622;9.230;2023-02-26T15:51:02;1.60;;;1.00;;
8893;SDS011;4483;48.622;9.230;2023-02-26T15:53:31;0.90;;;0.90;;
8893;SDS011;4483;48.622;9.230;2023-02-26T15:56:03;0.93;;;0.93;;
8893;SDS011;4483;48.622;9.230;2023-02-26T15:58:36;1.57;;;1.20;;
8893;SDS011;4483;48.622;9.230;2023-02-26T16:01:12;1.33;;;0.70;;
8893;SDS011;4483;48.622;9.230;2023-02-26T16:03:41;0.93;;;0.80;;
8893;SDS011;4483;48.622;9.230;2023-02-26T16:06:10;0.70;;;0.70;;
8893;SDS011;4483;48.622;9.230;2023-02-26T16:08:38;0.70;;;0.70;;
8893;SDS011;4483;48.622;9.230;2023-02-26T16:11:05;1.00;;;0.77;;
8893;SDS011;4483;48.622;9.230;2023-02-26T16:13:34;0.83;;;0.83;;
8893;SDS011;4483;48.622;9.230;2023-02-26T16:16:05;0.70;;;0.70;;